sensor_id;sensor_type;location;lat;lon;timestamp;P1;durP1;ratioP1;P2;durP2;ratioP2
2896;SDS011;1458;49.728;9.228;2023-11-22T00:00:47;0.70;;;0.70;;
2896;SDS011;1458;49.728;9.228;2023-11-22T00:03:15;0.70;;;0.70;;
2896;SDS011;1458;49.728;9.228;2023-11-22T00:05:44;0.80;;;0.80;;
2896;SDS011;1458;49.728;9.228;2023-11-22T00:08:12;0.70;;;0.70;;
2896;SDS011;1458;49.728;9.228;2023-11-22T00:10:39;0.90;;;0.90;;
2896;SDS011;1458;49.728;9.228;2023-11-22T00:13:07;0.90;;;0.90;;
2896;SDS011;1458;49.728;9.228;2023-11-22T00:15:34;1.00;;;1.00;;
2896;SDS011;1458;49.728;9.228;2023-11-22T00:18:01;0.80;;;0.80;;
2896;SDS011;1458;49.728;9.228;2023-11-22T00:20:30;0.90;;;0.90;;
2896;SDS011;1458;49.728;9.228;2023-11-22T00:22:58;0.90;;;0.90;;
2896;SDS011;1458;49.728;9.228;2023-11-22T00:25:26;0.80;;;0.80;;
2896;SDS011;1458;49.728;9.228;2023-11-22T00:27:54;0.97;;;0.97;;
2896;SDS011;1458;49.728;9.228;2023-11-22T00:30:21;0.90;;;0.90;;
2896;SDS011;1458;49.728;9.228;2023-11-22T00:32:50;1.00;;;1.00;;
2896;SDS011;1458;49.728;9.228;2023-11-22T00:35:18;0.80;;;0.80;;
2896;SDS011;1458;49.728;9.228;2023-11-22T00:37:47;1.03;;;1.03;;
2896;SDS011;1458;49.728;9.228;2023-11-22T00:40:14;0.80;;;0.80;;
2896;SDS011;1458;49.728;9.228;2023-11-22T00:42:41;0.70;;;0.70;;
2896;SDS011;1458;49.728;9.228;2023-11-22T00:45:09;0.60;;;0.60;;
2896;SDS011;1458;49.728;9.228;2023-11-22T00:47:37;0.63;;;0.63;;
2896;SDS011;1458;49.728;9.228;2023-11-22T00:50:06;0.70;;;0.70;;
2896;SDS011;1458;49.728;9.228;2023-11-22T00:52:34;0.60;;;0.60;;
2896;SDS011;1458;49.728;9.228;2023-11-22T00:55:04;0.60;;;0.60;;
2896;SDS011;1458;49.728;9.228;2023-11-22T00:57:32;0.70;;;0.70;;
2896;SDS011;1458;49.728;9.228;2023-11-22T01:00:00;0.83;;;0.83;;
2896;SDS011;1458;49.728;9.228;2023-11-22T01:02:29;0.60;;;0.60;;
2896;SDS011;1458;49.728;9.228;2023-11-22T01:04:56;0.60;;;0.60;;
2896;SDS011;1458;49.728;9.228;2023-11-22T01:07:24;0.60;;;0.60;;
2896;SDS011;1458;49.728;9.228;2023-11-22T01:09:51;0.60;;;0.60;;
2896;SDS011;1458;49.728;9.228;2023-11-22T01:12:20;0.77;;;0.77;;
2896;SDS011;1458;49.728;9.228;2023-11-22T01:14:48;0.60;;;0.60;;
2896;SDS011;1458;49.728;9.228;2023-11-22T01:17:15;0.60;;;0.60;;
2896;SDS011;1458;49.728;9.228;2023-11-22T01:19:43;0.50;;;0.50;;
2896;SDS011;1458;49.728;9.228;2023-11-22T01:22:10;0.60;;;0.60;;
2896;SDS011;1458;49.728;9.228;2023-11-22T01:24:38;0.60;;;0.60;;
2896;SDS011;1458;49.728;9.228;2023-11-22T01:27:05;0.70;;;0.70;;
2896;SDS011;1458;49.728;9.228;2023-11-22T01:29:34;0.63;;;0.63;;
2896;SDS011;1458;49.728;9.228;2023-11-22T01:32:01;0.50;;;0.50;;
2896;SDS011;1458;49.728;9.228;2023-11-22T01:34:30;0.50;;;0.50;;
2896;SDS011;1458;49.728;9.228;2023-11-22T01:36:57;0.60;;;0.60;;
2896;SDS011;1458;49.728;9.228;2023-11-22T01:39:24;0.60;;;0.60;;
2896;SDS011;1458;49.728;9.228;2023-11-22T01:41:52;0.70;;;0.70;;
2896;SDS011;1458;49.728;9.228;2023-11-22T01:44:21;0.60;;;0.60;;
2896;SDS011;1458;49.728;9.228;2023-11-22T01:46:50;0.77;;;0.77;;
2896;SDS011;1458;49.728;9.228;2023-11-22T01:49:17;0.70;;;0.70;;
2896;SDS011;1458;49.728;9.228;2023-11-22T01:51:45;0.90;;;0.90;;
2896;SDS011;1458;49.728;9.228;2023-11-22T01:54:12;0.83;;;0.83;;
2896;SDS011;1458;49.728;9.228;2023-11-22T01:56:41;1.00;;;1.00;;
2896;SDS011;1458;49.728;9.228;2023-11-22T01:59:08;0.97;;;0.97;;
2896;SDS011;1458;49.728;9.228;2023-11-22T02:01:35;0.70;;;0.70;;
2896;SDS011;1458;49.728;9.228;2023-11-22T02:04:05;0.80;;;0.80;;
2896;SDS011;1458;49.728;9.228;2023-11-22T02:06:32;0.90;;;0.90;;
2896;SDS011;1458;49.728;9.228;2023-11-22T02:09:00;0.80;;;0.80;;
2896;SDS011;1458;49.728;9.228;2023-11-22T02:11:28;0.70;;;0.70;;
2896;SDS011;1458;49.728;9.228;2023-11-22T02:13:55;0.80;;;0.80;;
2896;SDS011;1458;49.728;9.228;2023-11-22T02:16:23;0.80;;;0.80;;
2896;SDS011;1458;49.728;9.228;2023-11-22T02:18:50;0.80;;;0.80;;
2896;SDS011;1458;49.728;9.228;2023-11-22T02:21:19;0.80;;;0.80;;
2896;SDS011;1458;49.728;9.228;2023-11-22T02:23:48;1.10;;;1.10;;
2896;SDS011;1458;49.728;9.228;2023-11-22T02:26:16;1.13;;;1.13;;
2896;SDS011;1458;49.728;9.228;2023-11-22T02:28:43;0.87;;;0.87;;
2896;SDS011;1458;49.728;9.228;2023-11-22T02:31:11;0.87;;;0.87;;
2896;SDS011;1458;49.728;9.228;2023-11-22T02:33:39;0.90;;;0.90;;
2896;SDS011;1458;49.728;9.228;2023-11-22T02:36:07;0.80;;;0.80;;
2896;SDS011;1458;49.728;9.228;2023-11-22T02:38:37;0.60;;;0.60;;
2896;SDS011;1458;49.728;9.228;2023-11-22T02:41:07;0.70;;;0.70;;
2896;SDS011;1458;49.728;9.228;2023-11-22T02:43:34;0.70;;;0.70;;
2896;SDS011;1458;49.728;9.228;2023-11-22T02:46:02;0.60;;;0.60;;
2896;SDS011;1458;49.728;9.228;2023-11-22T02:48:29;0.70;;;0.70;;
2896;SDS011;1458;49.728;9.228;2023-11-22T02:50:56;0.70;;;0.70;;
2896;SDS011;1458;49.728;9.228;2023-11-22T02:53:24;0.63;;;0.63;;
2896;SDS011;1458;49.728;9.228;2023-11-22T02:55:52;0.77;;;0.77;;
2896;SDS011;1458;49.728;9.228;2023-11-22T02:58:22;0.70;;;0.70;;
2896;SDS011;1458;49.728;9.228;2023-11-22T03:00:49;0.70;;;0.70;;
2896;SDS011;1458;49.728;9.228;2023-11-22T03:03:20;0.80;;;0.80;;
2896;SDS011;1458;49.728;9.228;2023-11-22T03:05:49;0.70;;;0.70;;
2896;SDS011;1458;49.728;9.228;2023-11-22T03:08:16;0.80;;;0.80;;
2896;SDS011;1458;49.728;9.228;2023-11-22T03:10:44;0.80;;;0.80;;
2896;SDS011;1458;49.728;9.228;2023-11-22T03:13:11;0.63;;;0.63;;
2896;SDS011;1458;49.728;9.228;2023-11-22T03:15:40;0.70;;;0.70;;
2896;SDS011;1458;49.728;9.228;2023-11-22T03:18:07;0.90;;;0.90;;
2896;SDS011;1458;49.728;9.228;2023-11-22T03:20:36;0.70;;;0.70;;
2896;SDS011;1458;49.728;9.228;2023-11-22T03:23:03;0.60;;;0.60;;
2896;SDS011;1458;49.728;9.228;2023-11-22T03:25:31;0.70;;;0.70;;
2896;SDS011;1458;49.728;9.228;2023-11-22T03:27:58;0.80;;;0.80;;
2896;SDS011;1458;49.728;9.228;2023-11-22T03:30:26;0.73;;;0.73;;
2896;SDS011;1458;49.728;9.228;2023-11-22T03:32:55;0.70;;;0.70;;
2896;SDS011;1458;49.728;9.228;2023-11-22T03:35:22;0.70;;;0.70;;
2896;SDS011;1458;49.728;9.228;2023-11-22T03:37:50;0.70;;;0.70;;
2896;SDS011;1458;49.728;9.228;2023-11-22T03:40:17;0.70;;;0.70;;
2896;SDS011;1458;49.728;9.228;2023-11-22T03:42:45;0.80;;;0.80;;
2896;SDS011;1458;49.728;9.228;2023-11-22T03:45:13;0.70;;;0.70;;
2896;SDS011;1458;49.728;9.228;2023-11-22T03:47:41;0.70;;;0.70;;
2896;SDS011;1458;49.728;9.228;2023-11-22T03:50:09;0.70;;;0.70;;
2896;SDS011;1458;49.728;9.228;2023-11-22T03:52:37;0.60;;;0.60;;
2896;SDS011;1458;49.728;9.228;2023-11-22T03:55:05;0.70;;;0.70;;
2896;SDS011;1458;49.728;9.228;2023-11-22T03:57:33;0.83;;;0.83;;
2896;SDS011;1458;49.728;9.228;2023-11-22T04:00:00;0.70;;;0.70;;
2896;SDS011;1458;49.728;9.228;2023-11-22T04:02:38;0.60;;;0.60;;
2896;SDS011;1458;49.728;9.228;2023-11-22T04:05:07;0.70;;;0.70;;
2896;SDS011;1458;49.728;9.228;2023-11-22T04:07:37;0.83;;;0.83;;
2896;SDS011;1458;49.728;9.228;2023-11-22T04:10:04;0.60;;;0.60;;
2896;SDS011;1458;49.728;9.228;2023-11-22T04:12:33;0.70;;;0.70;;
2896;SDS011;1458;49.728;9.228;2023-11-22T04:15:00;0.67;;;0.67;;
2896;SDS011;1458;49.728;9.228;2023-11-22T04:17:27;0.80;;;0.80;;
2896;SDS011;1458;49.728;9.228;2023-11-22T04:19:55;0.73;;;0.73;;
2896;SDS011;1458;49.728;9.228;2023-11-22T04:22:23;0.60;;;0.60;;
2896;SDS011;1458;49.728;9.228;2023-11-22T04:24:51;0.70;;;0.70;;
2896;SDS011;1458;49.728;9.228;2023-11-22T04:27:18;0.60;;;0.60;;
2896;SDS011;1458;49.728;9.228;2023-11-22T04:29:46;0.70;;;0.70;;
2896;SDS011;1458;49.728;9.228;2023-11-22T04:32:13;0.70;;;0.70;;
2896;SDS011;1458;49.728;9.228;2023-11-22T04:34:41;0.60;;;0.60;;
2896;SDS011;1458;49.728;9.228;2023-11-22T04:37:08;0.70;;;0.70;;
2896;SDS011;1458;49.728;9.228;2023-11-22T04:39:37;0.70;;;0.70;;
2896;SDS011;1458;49.728;9.228;2023-11-22T04:42:04;0.60;;;0.60;;
2896;SDS011;1458;49.728;9.228;2023-11-22T04:44:32;0.70;;;0.70;;
2896;SDS011;1458;49.728;9.228;2023-11-22T04:46:59;0.60;;;0.60;;
2896;SDS011;1458;49.728;9.228;2023-11-22T04:49:27;0.60;;;0.60;;
2896;SDS011;1458;49.728;9.228;2023-11-22T04:51:54;0.70;;;0.70;;
2896;SDS011;1458;49.728;9.228;2023-11-22T04:54:21;0.60;;;0.60;;
2896;SDS011;1458;49.728;9.228;2023-11-22T04:56:50;0.70;;;0.70;;
2896;SDS011;1458;49.728;9.228;2023-11-22T04:59:17;0.70;;;0.70;;
2896;SDS011;1458;49.728;9.228;2023-11-22T05:01:45;0.70;;;0.70;;
2896;SDS011;1458;49.728;9.228;2023-11-22T05:04:14;0.70;;;0.70;;
2896;SDS011;1458;49.728;9.228;2023-11-22T05:06:41;0.70;;;0.70;;
2896;SDS011;1458;49.728;9.228;2023-11-22T05:09:09;0.70;;;0.70;;
2896;SDS011;1458;49.728;9.228;2023-11-22T05:11:38;0.70;;;0.70;;
2896;SDS011;1458;49.728;9.228;2023-11-22T05:14:08;0.70;;;0.70;;
2896;SDS011;1458;49.728;9.228;2023-11-22T05:16:35;0.70;;;0.70;;
2896;SDS011;1458;49.728;9.228;2023-11-22T05:19:02;0.70;;;0.70;;
2896;SDS011;1458;49.728;9.228;2023-11-22T05:21:31;0.70;;;0.70;;
2896;SDS011;1458;49.728;9.228;2023-11-22T05:23:58;0.70;;;0.70;;
2896;SDS011;1458;49.728;9.228;2023-11-22T05:26:25;0.70;;;0.70;;
2896;SDS011;1458;49.728;9.228;2023-11-22T05:28:53;0.80;;;0.80;;
2896;SDS011;1458;49.728;9.228;2023-11-22T05:31:22;0.60;;;0.60;;
2896;SDS011;1458;49.728;9.228;2023-11-22T05:33:49;0.60;;;0.60;;
2896;SDS011;1458;49.728;9.228;2023-11-22T05:36:17;0.70;;;0.70;;
2896;SDS011;1458;49.728;9.228;2023-11-22T05:38:44;0.70;;;0.70;;
2896;SDS011;1458;49.728;9.228;2023-11-22T05:41:12;0.70;;;0.70;;
2896;SDS011;1458;49.728;9.228;2023-11-22T05:43:40;0.60;;;0.60;;
2896;SDS011;1458;49.728;9.228;2023-11-22T05:46:08;0.60;;;0.60;;
2896;SDS011;1458;49.728;9.228;2023-11-22T05:48:39;0.70;;;0.70;;
2896;SDS011;1458;49.728;9.228;2023-11-22T05:51:06;0.70;;;0.70;;
2896;SDS011;1458;49.728;9.228;2023-11-22T05:53:34;0.70;;;0.70;;
2896;SDS011;1458;49.728;9.228;2023-11-22T05:56:02;0.83;;;0.83;;
2896;SDS011;1458;49.728;9.228;2023-11-22T05:58:30;0.70;;;0.70;;
2896;SDS011;1458;49.728;9.228;2023-11-22T06:00:57;0.70;;;0.70;;
2896;SDS011;1458;49.728;9.228;2023-11-22T06:03:24;0.60;;;0.60;;
2896;SDS011;1458;49.728;9.228;2023-11-22T06:05:53;0.70;;;0.70;;
2896;SDS011;1458;49.728;9.228;2023-11-22T06:08:22;0.70;;;0.70;;
2896;SDS011;1458;49.728;9.228;2023-11-22T06:10:51;0.80;;;0.80;;
2896;SDS011;1458;49.728;9.228;2023-11-22T06:13:22;0.60;;;0.60;;
2896;SDS011;1458;49.728;9.228;2023-11-22T06:15:49;0.70;;;0.70;;
2896;SDS011;1458;49.728;9.228;2023-11-22T06:18:17;0.60;;;0.60;;
2896;SDS011;1458;49.728;9.228;2023-11-22T06:20:45;0.70;;;0.70;;
2896;SDS011;1458;49.728;9.228;2023-11-22T06:23:15;0.70;;;0.70;;
2896;SDS011;1458;49.728;9.228;2023-11-22T06:25:42;0.87;;;0.87;;
2896;SDS011;1458;49.728;9.228;2023-11-22T06:28:10;0.70;;;0.70;;
2896;SDS011;1458;49.728;9.228;2023-11-22T06:30:37;0.70;;;0.70;;
2896;SDS011;1458;49.728;9.228;2023-11-22T06:33:05;0.87;;;0.87;;
2896;SDS011;1458;49.728;9.228;2023-11-22T06:35:32;0.70;;;0.70;;
2896;SDS011;1458;49.728;9.228;2023-11-22T06:37:59;0.70;;;0.70;;
2896;SDS011;1458;49.728;9.228;2023-11-22T06:40:28;0.83;;;0.83;;
2896;SDS011;1458;49.728;9.228;2023-11-22T06:42:56;0.80;;;0.80;;
2896;SDS011;1458;49.728;9.228;2023-11-22T06:45:23;0.73;;;0.73;;
2896;SDS011;1458;49.728;9.228;2023-11-22T06:47:50;0.73;;;0.73;;
2896;SDS011;1458;49.728;9.228;2023-11-22T06:50:18;0.70;;;0.70;;
2896;SDS011;1458;49.728;9.228;2023-11-22T06:52:46;0.80;;;0.80;;
2896;SDS011;1458;49.728;9.228;2023-11-22T06:55:15;0.80;;;0.80;;
2896;SDS011;1458;49.728;9.228;2023-11-22T06:57:44;0.97;;;0.97;;
2896;SDS011;1458;49.728;9.228;2023-11-22T07:00:11;0.80;;;0.80;;
2896;SDS011;1458;49.728;9.228;2023-11-22T07:02:41;0.80;;;0.80;;
2896;SDS011;1458;49.728;9.228;2023-11-22T07:05:09;0.70;;;0.70;;
2896;SDS011;1458;49.728;9.228;2023-11-22T07:07:37;0.80;;;0.80;;
2896;SDS011;1458;49.728;9.228;2023-11-22T07:10:06;0.70;;;0.70;;
2896;SDS011;1458;49.728;9.228;2023-11-22T07:12:36;0.70;;;0.70;;
2896;SDS011;1458;49.728;9.228;2023-11-22T07:15:07;0.70;;;0.70;;
2896;SDS011;1458;49.728;9.228;2023-11-22T07:17:38;0.70;;;0.70;;
2896;SDS011;1458;49.728;9.228;2023-11-22T07:20:07;0.70;;;0.70;;
2896;SDS011;1458;49.728;9.228;2023-11-22T07:22:41;0.80;;;0.80;;
2896;SDS011;1458;49.728;9.228;2023-11-22T07:25:09;0.70;;;0.70;;
2896;SDS011;1458;49.728;9.228;2023-11-22T07:27:43;0.70;;;0.70;;
2896;SDS011;1458;49.728;9.228;2023-11-22T07:30:13;0.80;;;0.80;;
2896;SDS011;1458;49.728;9.228;2023-11-22T07:32:41;0.80;;;0.80;;
2896;SDS011;1458;49.728;9.228;2023-11-22T07:35:09;0.90;;;0.90;;
2896;SDS011;1458;49.728;9.228;2023-11-22T07:37:37;0.80;;;0.80;;
2896;SDS011;1458;49.728;9.228;2023-11-22T07:40:08;0.70;;;0.70;;
2896;SDS011;1458;49.728;9.228;2023-11-22T07:42:38;0.70;;;0.70;;
2896;SDS011;1458;49.728;9.228;2023-11-22T07:45:06;0.80;;;0.80;;
2896;SDS011;1458;49.728;9.228;2023-11-22T07:47:38;0.80;;;0.80;;
2896;SDS011;1458;49.728;9.228;2023-11-22T07:50:07;0.87;;;0.87;;
2896;SDS011;1458;49.728;9.228;2023-11-22T07:52:36;0.90;;;0.90;;
2896;SDS011;1458;49.728;9.228;2023-11-22T07:55:05;0.80;;;0.80;;
2896;SDS011;1458;49.728;9.228;2023-11-22T07:57:35;0.70;;;0.70;;
2896;SDS011;1458;49.728;9.228;2023-11-22T08:00:04;0.80;;;0.80;;
2896;SDS011;1458;49.728;9.228;2023-11-22T08:02:40;0.80;;;0.80;;
2896;SDS011;1458;49.728;9.228;2023-11-22T08:05:08;0.93;;;0.93;;
2896;SDS011;1458;49.728;9.228;2023-11-22T08:07:37;0.80;;;0.80;;
2896;SDS011;1458;49.728;9.228;2023-11-22T08:10:06;0.80;;;0.80;;
2896;SDS011;1458;49.728;9.228;2023-11-22T08:12:42;0.80;;;0.80;;
2896;SDS011;1458;49.728;9.228;2023-11-22T08:15:10;0.90;;;0.90;;
2896;SDS011;1458;49.728;9.228;2023-11-22T08:17:38;0.80;;;0.80;;
2896;SDS011;1458;49.728;9.228;2023-11-22T08:20:08;1.00;;;1.00;;
2896;SDS011;1458;49.728;9.228;2023-11-22T08:22:38;0.87;;;0.87;;
2896;SDS011;1458;49.728;9.228;2023-11-22T08:25:07;0.80;;;0.80;;
2896;SDS011;1458;49.728;9.228;2023-11-22T08:27:38;1.00;;;1.00;;
2896;SDS011;1458;49.728;9.228;2023-11-22T08:30:07;0.90;;;0.90;;
2896;SDS011;1458;49.728;9.228;2023-11-22T08:32:40;0.97;;;0.97;;
2896;SDS011;1458;49.728;9.228;2023-11-22T08:35:09;0.90;;;0.90;;
2896;SDS011;1458;49.728;9.228;2023-11-22T08:37:39;1.00;;;1.00;;
2896;SDS011;1458;49.728;9.228;2023-11-22T08:40:07;1.00;;;1.00;;
2896;SDS011;1458;49.728;9.228;2023-11-22T08:42:40;1.00;;;1.00;;
2896;SDS011;1458;49.728;9.228;2023-11-22T08:45:08;1.10;;;1.10;;
2896;SDS011;1458;49.728;9.228;2023-11-22T08:47:37;1.07;;;1.07;;
2896;SDS011;1458;49.728;9.228;2023-11-22T08:50:07;1.00;;;1.00;;
2896;SDS011;1458;49.728;9.228;2023-11-22T08:52:37;0.90;;;0.90;;
2896;SDS011;1458;49.728;9.228;2023-11-22T08:55:05;1.00;;;1.00;;
2896;SDS011;1458;49.728;9.228;2023-11-22T08:57:35;1.00;;;1.00;;
2896;SDS011;1458;49.728;9.228;2023-11-22T09:00:03;1.07;;;1.07;;
2896;SDS011;1458;49.728;9.228;2023-11-22T09:02:34;1.10;;;1.10;;
2896;SDS011;1458;49.728;9.228;2023-11-22T09:05:02;1.00;;;1.00;;
2896;SDS011;1458;49.728;9.228;2023-11-22T09:07:33;1.20;;;1.20;;
2896;SDS011;1458;49.728;9.228;2023-11-22T09:10:03;1.30;;;1.30;;
2896;SDS011;1458;49.728;9.228;2023-11-22T09:12:35;1.70;;;1.70;;
2896;SDS011;1458;49.728;9.228;2023-11-22T09:15:05;1.50;;;1.50;;
2896;SDS011;1458;49.728;9.228;2023-11-22T09:17:35;1.40;;;1.40;;
2896;SDS011;1458;49.728;9.228;2023-11-22T09:20:08;1.40;;;1.40;;
2896;SDS011;1458;49.728;9.228;2023-11-22T09:22:42;1.50;;;1.50;;
2896;SDS011;1458;49.728;9.228;2023-11-22T09:25:13;1.70;;;1.70;;
2896;SDS011;1458;49.728;9.228;2023-11-22T09:27:42;1.90;;;1.90;;
2896;SDS011;1458;49.728;9.228;2023-11-22T09:30:12;2.30;;;2.30;;
2896;SDS011;1458;49.728;9.228;2023-11-22T09:32:45;2.10;;;2.10;;
2896;SDS011;1458;49.728;9.228;2023-11-22T09:35:12;2.30;;;2.30;;
2896;SDS011;1458;49.728;9.228;2023-11-22T09:37:43;2.70;;;2.70;;
2896;SDS011;1458;49.728;9.228;2023-11-22T09:40:11;3.10;;;3.10;;
2896;SDS011;1458;49.728;9.228;2023-11-22T09:42:42;3.87;;;3.87;;
2896;SDS011;1458;49.728;9.228;2023-11-22T09:45:15;3.87;;;3.87;;
2896;SDS011;1458;49.728;9.228;2023-11-22T09:47:44;4.30;;;4.30;;
2896;SDS011;1458;49.728;9.228;2023-11-22T09:50:13;4.40;;;4.40;;
2896;SDS011;1458;49.728;9.228;2023-11-22T09:52:49;5.30;;;5.30;;
2896;SDS011;1458;49.728;9.228;2023-11-22T09:55:20;4.97;;;4.97;;
2896;SDS011;1458;49.728;9.228;2023-11-22T09:57:48;5.57;;;5.57;;
2896;SDS011;1458;49.728;9.228;2023-11-22T10:00:19;5.70;;;5.70;;
2896;SDS011;1458;49.728;9.228;2023-11-22T10:02:52;5.60;;;5.60;;
2896;SDS011;1458;49.728;9.228;2023-11-22T10:05:20;5.60;;;5.60;;
2896;SDS011;1458;49.728;9.228;2023-11-22T10:07:49;6.00;;;6.00;;
2896;SDS011;1458;49.728;9.228;2023-11-22T10:10:16;6.17;;;6.17;;
2896;SDS011;1458;49.728;9.228;2023-11-22T10:12:47;6.50;;;6.50;;
2896;SDS011;1458;49.728;9.228;2023-11-22T10:15:15;6.97;;;6.87;;
2896;SDS011;1458;49.728;9.228;2023-11-22T10:17:47;7.23;;;7.13;;
2896;SDS011;1458;49.728;9.228;2023-11-22T10:20:23;7.40;;;7.30;;
2896;SDS011;1458;49.728;9.228;2023-11-22T10:22:52;6.30;;;6.30;;
2896;SDS011;1458;49.728;9.228;2023-11-22T10:25:20;6.30;;;6.30;;
2896;SDS011;1458;49.728;9.228;2023-11-22T10:27:48;6.10;;;6.10;;
2896;SDS011;1458;49.728;9.228;2023-11-22T10:30:17;5.90;;;5.90;;
2896;SDS011;1458;49.728;9.228;2023-11-22T10:32:45;5.87;;;5.87;;
2896;SDS011;1458;49.728;9.228;2023-11-22T10:35:12;5.60;;;5.60;;
2896;SDS011;1458;49.728;9.228;2023-11-22T10:37:41;6.33;;;6.23;;
2896;SDS011;1458;49.728;9.228;2023-11-22T10:40:13;6.00;;;6.00;;
2896;SDS011;1458;49.728;9.228;2023-11-22T10:42:41;6.73;;;6.63;;
2896;SDS011;1458;49.728;9.228;2023-11-22T10:45:09;6.20;;;6.20;;
2896;SDS011;1458;49.728;9.228;2023-11-22T10:47:37;6.20;;;6.20;;
2896;SDS011;1458;49.728;9.228;2023-11-22T10:50:08;6.90;;;6.80;;
2896;SDS011;1458;49.728;9.228;2023-11-22T10:52:38;7.10;;;7.00;;
2896;SDS011;1458;49.728;9.228;2023-11-22T10:55:08;7.90;;;7.80;;
2896;SDS011;1458;49.728;9.228;2023-11-22T10:57:44;7.70;;;7.60;;
2896;SDS011;1458;49.728;9.228;2023-11-22T11:00:13;7.40;;;7.30;;
2896;SDS011;1458;49.728;9.228;2023-11-22T11:02:44;7.90;;;7.80;;
2896;SDS011;1458;49.728;9.228;2023-11-22T11:05:15;7.50;;;7.40;;
2896;SDS011;1458;49.728;9.228;2023-11-22T11:07:49;7.83;;;7.73;;
2896;SDS011;1458;49.728;9.228;2023-11-22T11:10:24;7.83;;;7.73;;
2896;SDS011;1458;49.728;9.228;2023-11-22T11:12:52;8.30;;;8.20;;
2896;SDS011;1458;49.728;9.228;2023-11-22T11:15:20;7.80;;;7.70;;
2896;SDS011;1458;49.728;9.228;2023-11-22T11:17:48;7.70;;;7.60;;
2896;SDS011;1458;49.728;9.228;2023-11-22T11:20:16;7.40;;;7.30;;
2896;SDS011;1458;49.728;9.228;2023-11-22T11:22:46;7.20;;;7.10;;
2896;SDS011;1458;49.728;9.228;2023-11-22T11:25:15;7.70;;;7.60;;
2896;SDS011;1458;49.728;9.228;2023-11-22T11:27:45;7.30;;;7.20;;
2896;SDS011;1458;49.728;9.228;2023-11-22T11:30:40;7.43;;;7.33;;
2896;SDS011;1458;49.728;9.228;2023-11-22T11:33:10;7.40;;;7.30;;
2896;SDS011;1458;49.728;9.228;2023-11-22T11:35:41;7.90;;;7.80;;
2896;SDS011;1458;49.728;9.228;2023-11-22T11:38:12;8.43;;;8.33;;
2896;SDS011;1458;49.728;9.228;2023-11-22T11:40:40;8.43;;;8.33;;
2896;SDS011;1458;49.728;9.228;2023-11-22T11:43:10;8.20;;;8.10;;
2896;SDS011;1458;49.728;9.228;2023-11-22T11:45:39;8.50;;;8.40;;
2896;SDS011;1458;49.728;9.228;2023-11-22T11:48:12;8.40;;;8.30;;
2896;SDS011;1458;49.728;9.228;2023-11-22T11:50:40;8.40;;;8.30;;
2896;SDS011;1458;49.728;9.228;2023-11-22T11:53:08;8.50;;;8.40;;
2896;SDS011;1458;49.728;9.228;2023-11-22T11:55:36;8.80;;;8.70;;
2896;SDS011;1458;49.728;9.228;2023-11-22T11:58:04;8.80;;;8.70;;
2896;SDS011;1458;49.728;9.228;2023-11-22T12:00:36;8.50;;;8.40;;
2896;SDS011;1458;49.728;9.228;2023-11-22T12:03:06;8.50;;;8.40;;
2896;SDS011;1458;49.728;9.228;2023-11-22T12:05:36;8.90;;;8.70;;
2896;SDS011;1458;49.728;9.228;2023-11-22T12:08:03;8.60;;;8.50;;
2896;SDS011;1458;49.728;9.228;2023-11-22T12:10:31;8.60;;;8.50;;
2896;SDS011;1458;49.728;9.228;2023-11-22T12:12:59;8.20;;;8.10;;
2896;SDS011;1458;49.728;9.228;2023-11-22T12:15:26;8.10;;;8.00;;
2896;SDS011;1458;49.728;9.228;2023-11-22T12:17:56;8.70;;;8.60;;
2896;SDS011;1458;49.728;9.228;2023-11-22T12:20:24;8.80;;;8.70;;
2896;SDS011;1458;49.728;9.228;2023-11-22T12:22:56;9.80;;;9.60;;
2896;SDS011;1458;49.728;9.228;2023-11-22T12:25:26;9.00;;;8.80;;
2896;SDS011;1458;49.728;9.228;2023-11-22T12:27:53;8.20;;;8.10;;
2896;SDS011;1458;49.728;9.228;2023-11-22T12:30:28;8.10;;;8.00;;
2896;SDS011;1458;49.728;9.228;2023-11-22T12:32:58;8.30;;;8.20;;
2896;SDS011;1458;49.728;9.228;2023-11-22T12:35:29;8.90;;;8.70;;
2896;SDS011;1458;49.728;9.228;2023-11-22T12:37:59;9.30;;;9.10;;
2896;SDS011;1458;49.728;9.228;2023-11-22T12:40:28;10.33;;;10.13;;
2896;SDS011;1458;49.728;9.228;2023-11-22T12:42:58;9.80;;;9.60;;
2896;SDS011;1458;49.728;9.228;2023-11-22T12:45:28;9.80;;;9.60;;
2896;SDS011;1458;49.728;9.228;2023-11-22T12:48:08;9.70;;;9.50;;
2896;SDS011;1458;49.728;9.228;2023-11-22T12:50:47;9.57;;;9.37;;
2896;SDS011;1458;49.728;9.228;2023-11-22T12:53:15;9.50;;;9.30;;
2896;SDS011;1458;49.728;9.228;2023-11-22T12:55:44;9.70;;;9.50;;
2896;SDS011;1458;49.728;9.228;2023-11-22T12:58:14;10.10;;;9.90;;
2896;SDS011;1458;49.728;9.228;2023-11-22T13:00:43;9.50;;;9.30;;
2896;SDS011;1458;49.728;9.228;2023-11-22T13:03:13;9.90;;;9.70;;
2896;SDS011;1458;49.728;9.228;2023-11-22T13:05:41;9.53;;;9.33;;
2896;SDS011;1458;49.728;9.228;2023-11-22T13:08:10;9.70;;;9.50;;
2896;SDS011;1458;49.728;9.228;2023-11-22T13:10:39;9.80;;;9.60;;
2896;SDS011;1458;49.728;9.228;2023-11-22T13:13:10;9.50;;;9.30;;
2896;SDS011;1458;49.728;9.228;2023-11-22T13:15:37;9.03;;;8.83;;
2896;SDS011;1458;49.728;9.228;2023-11-22T13:18:06;9.20;;;9.00;;
2896;SDS011;1458;49.728;9.228;2023-11-22T13:20:35;9.50;;;9.30;;
2896;SDS011;1458;49.728;9.228;2023-11-22T13:23:04;9.80;;;9.60;;
2896;SDS011;1458;49.728;9.228;2023-11-22T13:25:31;9.70;;;9.50;;
2896;SDS011;1458;49.728;9.228;2023-11-22T13:27:59;10.10;;;9.90;;
2896;SDS011;1458;49.728;9.228;2023-11-22T13:30:27;10.00;;;9.80;;
2896;SDS011;1458;49.728;9.228;2023-11-22T13:32:55;9.50;;;9.30;;
2896;SDS011;1458;49.728;9.228;2023-11-22T13:35:23;9.50;;;9.30;;
2896;SDS011;1458;49.728;9.228;2023-11-22T13:37:54;9.30;;;9.10;;
2896;SDS011;1458;49.728;9.228;2023-11-22T13:40:23;8.87;;;8.70;;
2896;SDS011;1458;49.728;9.228;2023-11-22T13:42:55;9.53;;;9.33;;
2896;SDS011;1458;49.728;9.228;2023-11-22T13:45:23;9.43;;;9.23;;
2896;SDS011;1458;49.728;9.228;2023-11-22T13:47:51;9.67;;;9.47;;
2896;SDS011;1458;49.728;9.228;2023-11-22T13:50:23;9.07;;;8.87;;
2896;SDS011;1458;49.728;9.228;2023-11-22T13:52:52;9.80;;;9.60;;
2896;SDS011;1458;49.728;9.228;2023-11-22T13:55:21;9.70;;;9.50;;
2896;SDS011;1458;49.728;9.228;2023-11-22T13:57:50;9.30;;;9.10;;
2896;SDS011;1458;49.728;9.228;2023-11-22T14:00:18;9.60;;;9.40;;
2896;SDS011;1458;49.728;9.228;2023-11-22T14:02:48;9.83;;;9.63;;
2896;SDS011;1458;49.728;9.228;2023-11-22T14:05:18;9.83;;;9.63;;
2896;SDS011;1458;49.728;9.228;2023-11-22T14:07:45;9.63;;;9.43;;
2896;SDS011;1458;49.728;9.228;2023-11-22T14:10:14;8.90;;;8.70;;
2896;SDS011;1458;49.728;9.228;2023-11-22T14:12:42;9.00;;;8.80;;
2896;SDS011;1458;49.728;9.228;2023-11-22T14:15:10;9.00;;;8.80;;
2896;SDS011;1458;49.728;9.228;2023-11-22T14:17:38;8.60;;;8.50;;
2896;SDS011;1458;49.728;9.228;2023-11-22T14:20:06;8.80;;;8.70;;
2896;SDS011;1458;49.728;9.228;2023-11-22T14:22:36;9.20;;;9.00;;
2896;SDS011;1458;49.728;9.228;2023-11-22T14:25:04;8.97;;;8.77;;
2896;SDS011;1458;49.728;9.228;2023-11-22T14:27:35;9.70;;;9.50;;
2896;SDS011;1458;49.728;9.228;2023-11-22T14:30:03;9.27;;;9.07;;
2896;SDS011;1458;49.728;9.228;2023-11-22T14:32:33;9.20;;;9.00;;
2896;SDS011;1458;49.728;9.228;2023-11-22T14:35:01;8.87;;;8.67;;
2896;SDS011;1458;49.728;9.228;2023-11-22T14:37:28;9.00;;;8.80;;
2896;SDS011;1458;49.728;9.228;2023-11-22T14:39:56;9.47;;;9.27;;
2896;SDS011;1458;49.728;9.228;2023-11-22T14:42:24;9.17;;;8.97;;
2896;SDS011;1458;49.728;9.228;2023-11-22T14:44:54;8.60;;;8.50;;
2896;SDS011;1458;49.728;9.228;2023-11-22T14:47:22;8.67;;;8.57;;
2896;SDS011;1458;49.728;9.228;2023-11-22T14:49:49;8.53;;;8.43;;
2896;SDS011;1458;49.728;9.228;2023-11-22T14:52:17;8.30;;;8.20;;
2896;SDS011;1458;49.728;9.228;2023-11-22T14:54:46;8.00;;;7.90;;
2896;SDS011;1458;49.728;9.228;2023-11-22T14:57:15;8.60;;;8.50;;
2896;SDS011;1458;49.728;9.228;2023-11-22T14:59:43;8.37;;;8.27;;
2896;SDS011;1458;49.728;9.228;2023-11-22T15:02:13;8.20;;;8.10;;
2896;SDS011;1458;49.728;9.228;2023-11-22T15:04:40;8.03;;;7.93;;
2896;SDS011;1458;49.728;9.228;2023-11-22T15:07:08;7.80;;;7.70;;
2896;SDS011;1458;49.728;9.228;2023-11-22T15:09:37;7.70;;;7.60;;
2896;SDS011;1458;49.728;9.228;2023-11-22T15:12:05;7.67;;;7.57;;
2896;SDS011;1458;49.728;9.228;2023-11-22T15:14:32;7.50;;;7.40;;
2896;SDS011;1458;49.728;9.228;2023-11-22T15:17:00;7.47;;;7.37;;
2896;SDS011;1458;49.728;9.228;2023-11-22T15:19:31;7.60;;;7.50;;
2896;SDS011;1458;49.728;9.228;2023-11-22T15:22:00;7.50;;;7.40;;
2896;SDS011;1458;49.728;9.228;2023-11-22T15:24:28;7.07;;;6.97;;